Time;durP1;ratioP1;P1;durP2;ratioP2;P2;SDS_P1;SDS_P2;PMS_P1;PMS_P2;Temp;Humidity;BMP_temperature;BMP_pressure;BME280_temperature;BME280_humidity;BME280_pressure;Samples;Min_cycle;Max_cycle;Signal;HPM_P1;HPM_P2
2022/05/15 00:01:57;;;;;;;;;;;;;;;13.67;70.67;99861.50;5014860;28;19972;-67
2022/05/15 00:04:26;;;;;;;;;;;;;;;13.50;71.00;99863.38;5014911;28;19926;-68
2022/05/15 00:07:03;;;;;;;;;;;;;;;13.40;70.83;99862.59;5014398;28;19972;-68
2022/05/15 00:09:41;;;;;;;;;;;;;;;13.33;71.42;99861.81;5014609;28;20391;-68
2022/05/15 00:12:10;;;;;;;;;;;;;;;13.32;71.93;99865.25;5014925;28;19929;-68
2022/05/15 00:14:42;;;;;;;;;;;;;;;13.32;71.46;99864.38;5014582;28;19926;-68
2022/05/15 00:17:12;;;;;;;;;;;;;;;13.30;71.49;99859.28;5014594;28;19926;-68
2022/05/15 00:19:41;;;;;;;;;;;;;;;13.28;71.67;99868.69;5014551;28;20368;-68
2022/05/15 00:22:14;;;;;;;;;;;;;;;13.19;71.85;99866.22;5014406;28;20374;-68
2022/05/15 00:24:45;;;;;;;;;;;;;;;13.16;71.86;99868.81;5014461;28;19980;-68
2022/05/15 00:27:15;;;;;;;;;;;;;;;13.15;71.91;99867.09;5014850;28;19933;-68
2022/05/15 00:29:43;;;;;;;;;;;;;;;13.08;72.09;99869.72;5014402;28;20276;-67
2022/05/15 00:32:13;;;;;;;;;;;;;;;12.96;72.15;99869.78;5014262;28;19926;-67
2022/05/15 00:34:42;;;;;;;;;;;;;;;12.87;72.37;99873.25;5014348;28;19926;-68
2022/05/15 00:37:11;;;;;;;;;;;;;;;12.93;72.64;99870.66;5014212;28;19926;-68
2022/05/15 00:39:42;;;;;;;;;;;;;;;12.92;72.30;99875.78;5014247;28;20391;-68
2022/05/15 00:42:11;;;;;;;;;;;;;;;12.91;72.13;99871.53;5013982;28;19947;-67
2022/05/15 00:44:40;;;;;;;;;;;;;;;12.89;72.38;99863.84;4997090;28;19925;-67
2022/05/15 00:47:14;;;;;;;;;;;;;;;12.91;71.95;99869.81;5014070;28;19925;-68
2022/05/15 00:49:43;;;;;;;;;;;;;;;12.91;72.27;99867.25;5014368;28;19929;-68
2022/05/15 00:52:13;;;;;;;;;;;;;;;12.93;71.82;99870.66;5014430;28;19948;-68
2022/05/15 00:54:45;;;;;;;;;;;;;;;12.86;71.72;99863.84;4996879;28;20426;-68
2022/05/15 00:57:17;;;;;;;;;;;;;;;12.81;71.61;99870.75;4996959;28;20276;-68
2022/05/15 00:59:50;;;;;;;;;;;;;;;12.79;71.65;99869.88;5014037;28;19929;-68
2022/05/15 01:02:30;;;;;;;;;;;;;;;12.78;71.31;99870.78;4996837;28;20283;-68
2022/05/15 01:05:03;;;;;;;;;;;;;;;12.70;71.26;99867.41;4996861;28;19925;-68
2022/05/15 01:07:34;;;;;;;;;;;;;;;12.56;71.25;99870.03;5013932;28;19926;-67
2022/05/15 01:10:08;;;;;;;;;;;;;;;12.43;71.57;99867.56;4996817;28;19930;-67
2022/05/15 01:12:40;;;;;;;;;;;;;;;12.38;72.00;99866.75;5013828;28;20429;-65
2022/05/15 01:15:18;;;;;;;;;;;;;;;12.34;72.13;99882.94;4996421;28;19933;-65
2022/05/15 01:17:49;;;;;;;;;;;;;;;12.31;72.49;99878.69;4996422;28;19976;-68
2022/05/15 01:20:20;;;;;;;;;;;;;;;12.26;72.42;99877.03;4999323;28;19931;-67
2022/05/15 01:22:54;;;;;;;;;;;;;;;12.17;72.53;99879.59;5017799;28;19941;-67
2022/05/15 01:25:27;;;;;;;;;;;;;;;12.14;72.95;99874.53;5000634;28;20322;-66
2022/05/15 01:28:02;;;;;;;;;;;;;;;12.15;72.82;99876.22;5017713;28;19925;-65
2022/05/15 01:30:32;;;;;;;;;;;;;;;12.19;73.14;99888.16;5017765;28;20372;-68
2022/05/15 01:33:01;;;;;;;;;;;;;;;12.14;72.76;99884.75;5000094;28;19952;-67
2022/05/15 01:35:31;;;;;;;;;;;;;;;12.12;73.22;99891.59;5018033;28;19925;-68
2022/05/15 01:38:11;;;;;;;;;;;;;;;12.07;73.17;99895.00;5018172;28;20075;-65
2022/05/15 01:40:42;;;;;;;;;;;;;;;12.04;73.21;99892.44;5000242;28;20024;-65
2022/05/15 01:43:14;;;;;;;;;;;;;;;11.96;73.18;99896.75;4999794;28;19926;-65
2022/05/15 01:45:43;;;;;;;;;;;;;;;11.90;73.48;99894.19;5017280;28;19925;-65
2022/05/15 01:48:16;;;;;;;;;;;;;;;11.88;73.78;99893.34;5017405;28;19929;-65
2022/05/15 01:50:45;;;;;;;;;;;;;;;11.90;73.87;99898.50;5000231;28;19929;-65
2022/05/15 01:53:22;;;;;;;;;;;;;;;11.96;73.52;99904.44;5017290;28;19925;-67
2022/05/15 01:55:52;;;;;;;;;;;;;;;11.94;73.82;99898.47;5017574;28;19926;-65
2022/05/15 01:58:21;;;;;;;;;;;;;;;11.97;73.69;99897.63;4999723;28;19925;-65
2022/05/15 02:00:56;;;;;;;;;;;;;;;12.03;73.73;99902.69;4999562;28;19972;-68
2022/05/15 02:03:29;;;;;;;;;;;;;;;12.02;73.57;99894.16;5017112;28;19932;-67
2022/05/15 02:05:58;;;;;;;;;;;;;;;12.03;73.76;99893.31;4999879;28;19930;-68
2022/05/15 02:08:32;;;;;;;;;;;;;;;12.03;73.59;99902.69;4999412;28;20448;-65
2022/05/15 02:11:01;;;;;;;;;;;;;;;11.99;73.88;99893.34;4999758;28;19926;-65
2022/05/15 02:13:33;;;;;;;;;;;;;;;12.02;73.66;99895.91;5016857;28;19933;-67
2022/05/15 02:16:02;;;;;;;;;;;;;;;11.99;73.58;99901.00;4999391;28;19949;-67
2022/05/15 02:18:31;;;;;;;;;;;;;;;12.03;73.40;99903.56;5017035;28;19925;-67
2022/05/15 02:21:00;;;;;;;;;;;;;;;11.89;73.31;99894.22;4999499;28;19925;-65
2022/05/15 02:23:31;;;;;;;;;;;;;;;11.83;73.58;99905.31;4999458;28;19964;-67
2022/05/15 02:26:01;;;;;;;;;;;;;;;11.69;73.75;99903.63;5016918;28;20295;-67
2022/05/15 02:28:30;;;;;;;;;;;;;;;11.63;73.68;99901.91;5016595;28;19925;-67
2022/05/15 02:31:02;;;;;;;;;;;;;;;11.51;73.97;99901.94;5015601;28;19929;-67
2022/05/15 02:33:37;;;;;;;;;;;;;;;11.45;74.06;99901.91;5016865;28;19925;-67
2022/05/15 02:36:05;;;;;;;;;;;;;;;11.40;74.32;99903.63;5016680;28;19960;-67
2022/05/15 02:38:36;;;;;;;;;;;;;;;11.42;74.24;99896.84;4998894;28;19949;-67
2022/05/15 02:41:04;;;;;;;;;;;;;;;11.43;74.23;99899.38;4998608;28;19932;-67
2022/05/15 02:43:33;;;;;;;;;;;;;;;11.47;74.50;99900.22;5016983;28;20391;-67
2022/05/15 02:46:07;;;;;;;;;;;;;;;11.49;74.67;99898.53;5016603;28;19932;-66
2022/05/15 02:51:14;;;;;;;;;;;;;;;11.45;74.79;99896.81;4998720;28;19930;-66
2022/05/15 02:53:45;;;;;;;;;;;;;;;11.41;74.93;99906.19;4998671;28;19932;-67
2022/05/15 02:56:16;;;;;;;;;;;;;;;11.45;74.77;99896.81;4998562;28;19925;-66
2022/05/15 02:58:47;;;;;;;;;;;;;;;11.48;74.66;99896.81;4998537;28;19929;-67
2022/05/15 03:01:17;;;;;;;;;;;;;;;11.54;74.69;99899.34;4998562;28;19925;-67
2022/05/15 03:03:46;;;;;;;;;;;;;;;11.60;74.36;99906.16;5016163;28;19936;-67
2022/05/15 03:06:15;;;;;;;;;;;;;;;11.55;74.38;99898.50;4998464;28;19933;-66
2022/05/15 03:08:47;;;;;;;;;;;;;;;11.49;74.57;99898.53;4998555;28;19926;-66
2022/05/15 03:11:16;;;;;;;;;;;;;;;11.47;74.88;99901.94;5015712;28;19929;-66
2022/05/15 03:13:44;;;;;;;;;;;;;;;11.51;74.64;99901.06;5016004;28;20295;-67
2022/05/15 03:16:14;;;;;;;;;;;;;;;11.56;74.43;99910.44;5015646;28;19979;-67
2022/05/15 03:18:46;;;;;;;;;;;;;;;11.63;74.47;99912.16;5015765;28;19926;-67
2022/05/15 03:21:28;;;;;;;;;;;;;;;11.71;73.92;99914.72;5016184;28;19926;-67
2022/05/15 03:24:54;;;;;;;;;;;;;;;11.76;73.55;99916.41;5015408;28;19926;-67
2022/05/15 03:27:22;;;;;;;;;;;;;;;11.82;73.56;99918.09;5015378;28;19933;-66
2022/05/15 03:29:57;;;;;;;;;;;;;;;11.84;73.19;99922.34;4997949;28;20012;-67
2022/05/15 03:32:30;;;;;;;;;;;;;;;11.88;72.85;99923.19;4998288;28;19952;-66
2022/05/15 03:34:58;;;;;;;;;;;;;;;11.96;72.70;99927.44;5015677;28;20338;-66
2022/05/15 03:37:27;;;;;;;;;;;;;;;12.00;72.40;99921.47;4997733;28;19925;-66
2022/05/15 03:39:57;;;;;;;;;;;;;;;12.07;72.09;99925.69;5015197;28;19936;-67
2022/05/15 03:42:26;;;;;;;;;;;;;;;12.14;71.88;99928.25;5014805;28;19956;-67
2022/05/15 03:44:55;;;;;;;;;;;;;;;12.19;71.88;99936.78;5015416;28;20360;-67
2022/05/15 03:47:26;;;;;;;;;;;;;;;12.22;71.53;99936.75;5015409;28;19925;-67
2022/05/15 03:49:56;;;;;;;;;;;;;;;12.24;71.32;99942.72;5015383;28;19935;-67
2022/05/15 03:52:24;;;;;;;;;;;;;;;12.24;71.40;99945.28;4997868;28;19961;-67
2022/05/15 03:54:53;;;;;;;;;;;;;;;12.28;71.30;99945.28;4997808;28;19925;-67
2022/05/15 03:57:23;;;;;;;;;;;;;;;12.28;71.20;99942.72;5015274;28;20334;-67
2022/05/15 03:59:51;;;;;;;;;;;;;;;12.26;71.36;99943.56;5014939;28;19932;-68
2022/05/15 04:02:20;;;;;;;;;;;;;;;12.28;71.58;99949.53;5015011;28;19926;-67
2022/05/15 04:04:49;;;;;;;;;;;;;;;12.33;71.48;99950.38;4997682;28;20020;-67
2022/05/15 04:07:21;;;;;;;;;;;;;;;12.40;71.57;99949.50;4997607;28;20343;-67
2022/05/15 04:09:50;;;;;;;;;;;;;;;12.50;71.26;99951.16;5014770;28;20391;-67
2022/05/15 04:12:20;;;;;;;;;;;;;;;12.55;71.36;99957.94;5015296;28;19925;-67
2022/05/15 04:14:50;;;;;;;;;;;;;;;12.65;70.53;99961.31;5014646;28;19929;-67
2022/05/15 04:17:19;;;;;;;;;;;;;;;12.74;70.36;99957.00;5014678;28;19925;-67
2022/05/15 04:19:49;;;;;;;;;;;;;;;12.80;70.03;99956.13;4996897;28;19925;-67
2022/05/15 04:22:26;;;;;;;;;;;;;;;12.95;69.85;99957.75;5014767;28;20020;-67
2022/05/15 04:24:59;;;;;;;;;;;;;;;13.07;69.42;99956.00;5014558;28;20375;-67
2022/05/15 04:27:27;;;;;;;;;;;;;;;13.21;69.08;99956.75;4996976;28;20008;-67
2022/05/15 04:30:01;;;;;;;;;;;;;;;13.30;68.66;99954.13;5014707;28;19957;-67
2022/05/15 04:32:32;;;;;;;;;;;;;;;13.44;68.56;99960.00;5014706;28;20391;-67
2022/05/15 04:35:01;;;;;;;;;;;;;;;13.59;67.86;99959.03;5014386;28;19965;-67
2022/05/15 04:37:40;;;;;;;;;;;;;;;13.69;67.73;99957.22;5014351;28;19933;-67
2022/05/15 04:40:13;;;;;;;;;;;;;;;13.82;67.41;99958.84;5014560;28;20017;-67
2022/05/15 04:42:45;;;;;;;;;;;;;;;13.89;67.34;99960.47;5014067;28;19932;-67
2022/05/15 04:45:19;;;;;;;;;;;;;;;13.97;67.19;99956.09;5014308;28;19925;-67
2022/05/15 04:47:48;;;;;;;;;;;;;;;14.07;66.90;99965.41;5014534;28;19925;-67
2022/05/15 04:50:18;;;;;;;;;;;;;;;14.17;66.82;99956.75;5014399;28;19930;-68
2022/05/15 04:52:50;;;;;;;;;;;;;;;14.28;66.28;99960.03;5014832;28;19972;-67
2022/05/15 04:55:25;;;;;;;;;;;;;;;14.40;66.30;99959.94;5013973;28;19980;-67
2022/05/15 04:57:55;;;;;;;;;;;;;;;14.47;66.08;99966.69;5014124;28;20020;-67
2022/05/15 05:00:28;;;;;;;;;;;;;;;14.51;65.44;99963.25;5014288;28;19926;-68
2022/05/15 05:03:06;;;;;;;;;;;;;;;14.58;65.60;99964.88;5014211;28;19933;-67
2022/05/15 05:05:35;;;;;;;;;;;;;;;14.70;65.27;99969.84;5013711;28;20372;-68
2022/05/15 05:08:05;;;;;;;;;;;;;;;14.85;64.81;99973.09;5014208;28;19930;-68
2022/05/15 05:10:36;;;;;;;;;;;;;;;14.94;64.84;99972.97;5013881;28;20364;-68
2022/05/15 05:13:04;;;;;;;;;;;;;;;15.10;64.53;99969.28;5014260;28;19926;-68
2022/05/15 05:15:34;;;;;;;;;;;;;;;15.11;64.27;99966.72;5014107;28;19972;-68
2022/05/15 05:18:03;;;;;;;;;;;;;;;15.21;63.90;99972.56;5014140;28;19925;-68
2022/05/15 05:20:32;;;;;;;;;;;;;;;15.29;63.96;99968.16;5014229;28;20016;-69
2022/05/15 05:23:00;;;;;;;;;;;;;;;15.40;63.51;99976.56;5014783;28;20011;-68
2022/05/15 05:25:29;;;;;;;;;;;;;;;15.39;63.20;99970.56;5013894;28;20008;-68
2022/05/15 05:28:00;;;;;;;;;;;;;;;15.42;63.28;99979.97;5013892;28;20020;-68
2022/05/15 05:30:29;;;;;;;;;;;;;;;15.48;63.03;99972.16;5014076;28;19979;-67
2022/05/15 05:32:59;;;;;;;;;;;;;;;15.59;63.10;99980.59;5013565;28;19925;-68
2022/05/15 05:35:28;;;;;;;;;;;;;;;15.75;62.83;99982.00;5014077;28;20027;-68
2022/05/15 05:38:00;;;;;;;;;;;;;;;15.88;62.75;99977.53;5013983;28;20086;-68
2022/05/15 05:40:32;;;;;;;;;;;;;;;16.02;62.53;99981.56;5013762;28;20522;-68
2022/05/15 05:43:00;;;;;;;;;;;;;;;16.10;62.32;99979.66;5013580;28;19926;-68
2022/05/15 05:45:32;;;;;;;;;;;;;;;16.21;62.06;99986.34;5013553;28;20012;-68
2022/05/15 05:48:02;;;;;;;;;;;;;;;16.37;62.35;99985.19;5013981;28;20286;-68
2022/05/15 05:50:32;;;;;;;;;;;;;;;16.46;61.85;99991.00;5013589;28;19929;-68
2022/05/15 05:53:01;;;;;;;;;;;;;;;16.48;61.47;99991.00;5013694;28;20457;-68
2022/05/15 05:55:54;;;;;;;;;;;;;;;16.64;61.38;99984.66;4996090;28;19926;-68
2022/05/15 05:58:26;;;;;;;;;;;;;;;16.71;61.08;99983.66;5013554;28;19925;-68
2022/05/15 06:00:55;;;;;;;;;;;;;;;16.82;60.60;99986.03;5013814;28;19976;-68
2022/05/15 06:06:06;;;;;;;;;;;;;;;17.06;60.01;99988.91;5014440;28;19925;-68
2022/05/15 06:08:35;;;;;;;;;;;;;;;17.08;59.63;99989.75;5017312;28;19971;-68
2022/05/15 06:11:03;;;;;;;;;;;;;;;17.21;59.35;99985.13;5016789;28;19932;-67
2022/05/15 06:13:35;;;;;;;;;;;;;;;17.35;58.94;99988.25;5016906;28;19976;-68
2022/05/15 06:16:03;;;;;;;;;;;;;;;17.43;58.01;99994.94;5016749;28;19926;-69
2022/05/15 06:18:34;;;;;;;;;;;;;;;17.46;57.38;99993.16;5016736;28;19925;-68
2022/05/15 06:21:02;;;;;;;;;;;;;;;17.56;57.34;99992.09;5016666;28;20303;-68
2022/05/15 06:23:31;;;;;;;;;;;;;;;17.71;56.93;99986.53;5016528;28;19980;-68
2022/05/15 06:26:00;;;;;;;;;;;;;;;17.85;56.81;99992.25;5016664;28;19925;-67
2022/05/15 06:28:29;;;;;;;;;;;;;;;17.91;56.89;99989.50;5016105;28;19929;-67
2022/05/15 06:30:58;;;;;;;;;;;;;;;18.07;57.04;99990.78;5016890;28;19929;-67
2022/05/15 06:33:26;;;;;;;;;;;;;;;18.14;57.11;99989.72;5016323;28;19932;-68
2022/05/15 06:35:58;;;;;;;;;;;;;;;18.26;57.46;99986.81;5015946;28;19926;-67
2022/05/15 06:38:27;;;;;;;;;;;;;;;18.35;57.22;99991.75;5016677;28;19925;-68
2022/05/15 06:40:56;;;;;;;;;;;;;;;18.53;56.87;99987.84;5016598;28;19925;-68
2022/05/15 06:43:24;;;;;;;;;;;;;;;18.67;56.47;99983.97;5016038;28;19926;-67
2022/05/15 06:45:53;;;;;;;;;;;;;;;18.75;55.54;99991.50;5016195;28;19929;-68
2022/05/15 06:48:24;;;;;;;;;;;;;;;18.82;54.73;99982.69;5016040;28;20040;-68
2022/05/15 06:50:53;;;;;;;;;;;;;;;18.91;54.52;99991.94;5015612;28;19972;-68
2022/05/15 06:53:22;;;;;;;;;;;;;;;19.14;54.54;99984.31;5015967;28;20341;-67
2022/05/15 06:58:33;;;;;;;;;;;;;;;19.38;53.85;99983.59;5015978;28;19987;-67
2022/05/15 07:01:03;;;;;;;;;;;;;;;19.51;53.39;99984.03;5016004;28;19960;-67
2022/05/15 07:03:31;;;;;;;;;;;;;;;19.58;53.49;99976.00;4997860;28;19926;-67
2022/05/15 07:06:00;;;;;;;;;;;;;;;19.69;53.36;99979.09;5016017;28;20268;-67
2022/05/15 07:08:31;;;;;;;;;;;;;;;19.84;53.30;99982.94;5016007;28;19961;-68
2022/05/15 07:11:00;;;;;;;;;;;;;;;19.92;52.86;99981.75;5015767;28;19961;-68
2022/05/15 07:13:37;;;;;;;;;;;;;;;19.88;52.00;99980.19;5015680;28;19929;-67
2022/05/15 07:16:06;;;;;;;;;;;;;;;19.98;52.33;99984.16;5015953;28;19929;-68
2022/05/15 07:18:36;;;;;;;;;;;;;;;20.22;52.76;99981.59;5015690;28;19948;-68
2022/05/15 07:21:04;;;;;;;;;;;;;;;20.34;52.04;99983.81;5015569;28;19969;-68
2022/05/15 07:23:35;;;;;;;;;;;;;;;20.49;51.49;99983.25;5015474;28;19999;-67
2022/05/15 07:26:04;;;;;;;;;;;;;;;20.52;51.07;99985.72;5015608;28;20375;-69
2022/05/15 07:28:32;;;;;;;;;;;;;;;20.62;49.96;99989.69;5015649;28;19980;-67
2022/05/15 07:31:01;;;;;;;;;;;;;;;20.78;49.18;99990.78;5015373;28;19929;-67
2022/05/15 07:33:30;;;;;;;;;;;;;;;20.87;48.84;99981.84;4998133;28;19936;-68
2022/05/15 07:35:58;;;;;;;;;;;;;;;20.92;49.00;99983.38;5015340;28;19926;-67
2022/05/15 07:38:27;;;;;;;;;;;;;;;21.03;48.66;99986.38;5015425;28;19925;-68
2022/05/15 07:40:57;;;;;;;;;;;;;;;21.14;48.51;99986.84;5015590;28;19926;-68
2022/05/15 07:43:25;;;;;;;;;;;;;;;21.14;47.77;99989.44;4978114;28;19926;-68
2022/05/15 07:45:54;;;;;;;;;;;;;;;21.20;47.56;99989.22;4995509;28;19925;-68
2022/05/15 07:48:22;;;;;;;;;;;;;;;21.37;47.60;99985.94;4995734;28;20339;-68
2022/05/15 07:50:52;;;;;;;;;;;;;;;21.51;47.50;99977.59;4995717;28;19926;-68
2022/05/15 07:53:21;;;;;;;;;;;;;;;21.74;47.11;99980.13;4996068;28;19973;-68
2022/05/15 07:55:49;;;;;;;;;;;;;;;21.96;47.59;99981.78;4987212;28;20380;-69
2022/05/15 07:58:20;;;;;;;;;;;;;;;22.12;46.91;99984.56;4995307;28;20403;-68
2022/05/15 08:00:49;;;;;;;;;;;;;;;22.09;46.52;99976.91;4995390;28;20448;-68
2022/05/15 08:03:17;;;;;;;;;;;;;;;22.17;46.62;99980.00;4995104;28;19925;-68
2022/05/15 08:08:27;;;;;;;;;;;;;;;22.20;45.77;99974.66;4995288;28;20273;-67
2022/05/15 08:10:56;;;;;;;;;;;;;;;22.41;45.85;99973.72;4994995;28;19933;-68
2022/05/15 08:13:28;;;;;;;;;;;;;;;22.60;45.51;99974.59;4995002;28;19926;-68
2022/05/15 08:15:57;;;;;;;;;;;;;;;22.70;45.52;99972.44;4995211;28;19929;-67
2022/05/15 08:23:44;;;;;;;;;;;;;;;22.84;43.63;99966.63;4994884;28;20339;-68
2022/05/15 08:26:13;;;;;;;;;;;;;;;22.81;42.42;99966.75;4994752;28;19957;-68
2022/05/15 08:28:43;;;;;;;;;;;;;;;22.93;41.95;99966.19;4994083;28;19980;-68
2022/05/15 08:31:12;;;;;;;;;;;;;;;23.03;41.70;99964.84;4994750;28;19961;-66
2022/05/15 08:33:41;;;;;;;;;;;;;;;23.09;42.04;99969.75;4994666;28;19973;-67
2022/05/15 08:36:10;;;;;;;;;;;;;;;23.00;42.30;99972.81;4994695;28;19926;-68
2022/05/15 08:38:39;;;;;;;;;;;;;;;23.02;42.12;99971.81;4994657;28;19926;-67
2022/05/15 08:41:14;;;;;;;;;;;;;;;23.06;41.45;99967.31;4995764;28;19973;-67
2022/05/15 08:43:46;;;;;;;;;;;;;;;23.17;41.55;99967.66;5014440;28;19948;-68
2022/05/15 08:46:19;;;;;;;;;;;;;;;23.22;41.59;99968.28;5014174;28;19952;-68
2022/05/15 08:48:47;;;;;;;;;;;;;;;23.30;40.74;99966.13;5014199;28;19926;-68
2022/05/15 08:51:16;;;;;;;;;;;;;;;23.27;40.40;99966.31;5013975;28;20375;-67
2022/05/15 08:53:47;;;;;;;;;;;;;;;23.42;40.67;99969.97;5014091;28;19960;-68
2022/05/15 08:56:17;;;;;;;;;;;;;;;23.52;40.38;99969.41;5014364;28;20331;-68
2022/05/15 08:58:49;;;;;;;;;;;;;;;23.78;40.63;99963.75;5014476;28;19933;-68
2022/05/15 09:01:21;;;;;;;;;;;;;;;24.13;40.57;99969.00;5014626;28;19925;-67
2022/05/15 09:03:54;;;;;;;;;;;;;;;24.22;39.84;99963.28;5014642;28;19961;-68
2022/05/15 09:06:31;;;;;;;;;;;;;;;24.15;39.51;99967.13;5013824;28;19957;-67
2022/05/15 09:09:03;;;;;;;;;;;;;;;24.10;39.51;99964.78;5014259;28;19925;-68
2022/05/15 09:11:53;;;;;;;;;;;;;;;24.25;40.36;99963.13;5014299;28;20423;-69
2022/05/15 09:14:31;;;;;;;;;;;;;;;23.93;39.28;99959.53;5013738;28;19925;-68
2022/05/15 09:17:15;;;;;;;;;;;;;;;23.92;40.01;99958.69;5013990;28;20427;-67
2022/05/15 09:20:03;;;;;;;;;;;;;;;23.88;39.61;99954.56;5014182;28;19929;-68
2022/05/15 09:22:34;;;;;;;;;;;;;;;24.00;39.87;99959.16;4996584;28;19926;-68
2022/05/15 09:25:07;;;;;;;;;;;;;;;24.22;39.31;99958.06;4996544;28;19925;-68
2022/05/15 09:27:36;;;;;;;;;;;;;;;24.24;39.35;99958.84;5014200;28;19926;-67
2022/05/15 09:30:15;;;;;;;;;;;;;;;24.39;39.55;99960.66;5014210;28;19998;-68
2022/05/15 10:44:02;;;;;;;0.50;0.50;;;;;;;25.46;37.01;99915.50;5132041;27;20371;-70
2022/05/15 10:46:43;;;;;;;0.85;0.85;;;;;;;25.64;37.42;99916.22;5131041;28;20178;-71
2022/05/15 10:49:33;;;;;;;0.70;0.70;;;;;;;26.00;38.02;99916.66;5131882;27;20053;-71
2022/05/15 10:52:12;;;;;;;1.13;1.02;;;;;;;25.96;38.13;99915.16;5132138;27;20489;-70
2022/05/15 10:57:47;;;;;;;12.43;1.33;;;;;;;25.70;39.72;99914.06;5131672;28;20039;-71
2022/05/15 11:00:38;;;;;;;0.80;0.70;;;;;;;25.66;38.90;99914.34;5131780;27;20776;-70
2022/05/15 11:03:31;;;;;;;1.13;0.80;;;;;;;26.02;37.57;99904.31;5131620;27;20043;-70
2022/05/15 11:06:34;;;;;;;0.65;0.65;;;;;;;26.39;35.73;99900.34;5130818;28;20067;-70
2022/05/15 11:09:11;;;;;;;0.70;0.70;;;;;;;26.63;35.85;99880.47;5131523;28;20100;-71
2022/05/15 11:12:14;;;;;;;0.70;0.70;;;;;;;26.96;34.83;99901.06;5131336;28;20060;-70
2022/05/15 11:14:59;;;;;;;0.75;0.70;;;;;;;27.14;34.42;99890.22;5131659;28;20108;-72
2022/05/15 11:17:37;;;;;;;0.43;0.43;;;;;;;27.28;33.25;99897.22;5131243;28;20067;-71
2022/05/15 11:20:11;;;;;;;0.60;0.60;;;;;;;27.33;33.47;99887.22;5131288;27;20130;-72
2022/05/15 11:22:46;;;;;;;5.80;1.80;;;;;;;27.40;33.59;99888.56;5131101;28;20051;-72
2022/05/15 11:25:22;;;;;;;0.60;0.60;;;;;;;27.54;33.84;99885.00;5131533;28;20138;-72
2022/05/15 11:27:54;;;;;;;0.55;0.55;;;;;;;27.66;33.02;99879.78;5131126;28;20118;-72
2022/05/15 11:30:28;;;;;;;0.60;0.60;;;;;;;27.77;33.19;99876.41;5131103;28;20051;-71
2022/05/15 11:33:05;;;;;;;2.70;1.48;;;;;;;27.77;32.67;99882.50;5131505;28;20042;-71
2022/05/15 11:35:37;;;;;;;0.70;0.70;;;;;;;27.81;32.52;99865.59;5131008;28;20052;-70
2022/05/15 11:38:23;;;;;;;0.60;0.60;;;;;;;28.08;33.40;99875.16;5131292;28;20536;-71
2022/05/15 11:40:54;;;;;;;1.23;0.90;;;;;;;28.20;33.26;99869.06;5129076;27;20550;-71
2022/05/15 11:43:57;;;;;;;0.60;0.60;;;;;;;28.29;33.36;99868.44;5130569;27;20047;-72
2022/05/15 11:46:48;;;;;;;0.88;0.70;;;;;;;28.22;33.42;99861.94;5130845;27;20054;-71
2022/05/15 11:49:28;;;;;;;0.63;0.63;;;;;;;28.23;32.97;99847.84;5130778;27;20043;-72
2022/05/15 11:52:15;;;;;;;1.05;0.60;;;;;;;28.07;32.47;99868.25;5130652;28;20070;-72
2022/05/15 11:54:52;;;;;;;0.93;0.70;;;;;;;28.15;32.80;99860.66;5118853;28;20052;-72
2022/05/15 11:57:34;;;;;;;1.27;1.10;;;;;;;28.09;31.01;99863.75;5116877;28;20126;-73
2022/05/15 12:00:11;;;;;;;0.65;0.65;;;;;;;28.14;31.13;99864.25;5116886;28;20131;-71
